Time,TemperatureF,DewpointF,PressureIn,WindDirection,WindDirectionDegrees,WindSpeedMPH,WindSpeedGustMPH,Humidity,HourlyPrecipIn,Conditions,Clouds,dailyrainin,SolarRadiationWatts/m^2,SoftwareType,DateUTC
2013-05-10 00:01:00,60.0,58.0,29.80,SW,218,2.9,3.5,93,0.00,CLR,,0.25,0.0,WeatherDisplay:10.37,2013-05-10 05:01:00,
2013-05-10 00:06:00,59.9,57.9,29.80,SW,218,2.0,3.5,93,0.00,CLR,,0.25,0.0,WeatherDisplay:10.37,2013-05-10 05:06:00,
2013-05-10 00:11:00,59.9,57.9,29.80,SW,216,4.3,9.2,93,0.00,CLR,,0.25,0.0,WeatherDisplay:10.37,2013-05-10 05:11:00,
2013-05-10 00:16:00,59.8,57.8,29.80,SW,216,2.2,5.0,93,0.00,CLR,,0.25,0.0,WeatherDisplay:10.37,2013-05-10 05:16:00,
2013-05-10 00:21:00,59.8,57.8,29.80,SW,217,2.5,4.6,93,0.00,CLR,,0.25,0.0,WeatherDisplay:10.37,2013-05-10 05:21:00,
2013-05-10 00:26:00,59.7,57.7,29.80,SW,217,2.2,3.5,93,0.00,CLR,,0.25,0.0,WeatherDisplay:10.37,2013-05-10 05:26:00,
2013-05-10 00:31:00,59.6,57.9,29.80,West,277,4.1,5.8,94,0.00,CLR,,0.25,0.0,WeatherDisplay:10.37,2013-05-10 05:31:00,
2013-05-10 00:36:00,59.8,58.1,29.80,West,268,2.3,5.0,94,0.00,CLR,,0.25,0.0,WeatherDisplay:10.37,2013-05-10 05:36:00,
2013-05-10 00:41:00,59.8,58.1,29.80,West,268,2.7,4.6,94,0.00,CLR,,0.25,0.0,WeatherDisplay:10.37,2013-05-10 05:41:00,
2013-05-10 00:46:00,59.8,58.1,29.80,West,268,0.7,3.0,94,0.00,CLR,,0.25,0.0,WeatherDisplay:10.37,2013-05-10 05:46:00,
2013-05-10 00:51:00,59.7,58.0,29.81,WSW,246,3.6,5.8,94,0.00,CLR,,0.25,0.0,WeatherDisplay:10.37,2013-05-10 05:51:00,
2013-05-10 00:56:00,59.6,57.9,29.81,WSW,238,3.5,6.0,94,0.00,CLR,,0.25,0.0,WeatherDisplay:10.37,2013-05-10 05:56:00,
2013-05-10 01:01:00,59.7,58.0,29.81,WSW,238,2.6,3.5,94,0.00,CLR,,0.25,0.0,WeatherDisplay:10.37,2013-05-10 06:01:00,
2013-05-10 01:06:00,59.7,58.0,29.81,West,259,2.5,4.0,94,0.00,CLR,,0.25,0.0,WeatherDisplay:10.37,2013-05-10 06:06:00,
2013-05-10 01:11:00,59.7,58.0,29.81,WSW,241,3.1,5.8,94,0.00,CLR,,0.25,0.0,WeatherDisplay:10.37,2013-05-10 06:11:00,
2013-05-10 01:16:00,59.7,58.0,29.81,WSW,251,4.8,8.1,94,0.00,CLR,,0.25,0.0,WeatherDisplay:10.37,2013-05-10 06:16:00,
2013-05-10 01:21:00,59.8,58.1,29.81,WSW,240,4.2,5.8,94,0.00,CLR,,0.25,0.0,WeatherDisplay:10.37,2013-05-10 06:21:00,
2013-05-10 01:26:00,59.9,58.2,29.81,SW,227,6.3,11.5,94,0.00,CLR,,0.25,0.0,WeatherDisplay:10.37,2013-05-10 06:26:00,
2013-05-10 01:31:00,59.9,58.2,29.81,WSW,241,5.6,8.1,94,0.00,CLR,,0.25,0.0,WeatherDisplay:10.37,2013-05-10 06:31:00,
2013-05-10 01:36:00,59.9,58.2,29.81,West,259,2.9,9.0,94,0.00,CLR,,0.25,0.0,WeatherDisplay:10.37,2013-05-10 06:36:00,
2013-05-10 01:41:00,59.8,58.1,29.81,West,259,1.8,5.8,94,0.00,CLR,,0.25,0.0,WeatherDisplay:10.37,2013-05-10 06:41:00,
2013-05-10 01:46:00,59.7,58.0,29.80,WSW,243,2.8,4.6,94,0.00,CLR,,0.25,0.0,WeatherDisplay:10.37,2013-05-10 06:46:00,
2013-05-10 01:51:00,59.8,58.1,29.80,West,279,4.0,5.8,94,0.00,CLR,,0.25,0.0,WeatherDisplay:10.37,2013-05-10 06:51:00,
2013-05-10 01:56:00,59.8,58.1,29.80,West,273,1.6,3.5,94,0.00,CLR,,0.25,0.0,WeatherDisplay:10.37,2013-05-10 06:56:00,
2013-05-10 02:01:00,59.8,58.1,29.80,West,261,4.1,8.1,94,0.00,CLR,,0.25,0.0,WeatherDisplay:10.37,2013-05-10 07:01:00,
2013-05-10 02:06:00,59.8,58.1,29.80,WNW,289,5.8,9.2,94,0.00,CLR,,0.25,0.0,WeatherDisplay:10.37,2013-05-10 07:06:00,
2013-05-10 02:11:00,59.8,58.1,29.80,West,269,4.9,6.9,94,0.00,CLR,,0.25,0.0,WeatherDisplay:10.37,2013-05-10 07:11:00,
2013-05-10 02:16:00,59.7,58.0,29.80,West,277,5.8,11.5,94,0.00,CLR,,0.25,0.0,WeatherDisplay:10.37,2013-05-10 07:16:00,
2013-05-10 02:21:00,59.5,57.8,29.80,West,273,6.6,12.0,94,0.00,CLR,,0.25,0.0,WeatherDisplay:10.37,2013-05-10 07:21:00,
2013-05-10 02:26:00,59.3,57.6,29.80,WNW,295,9.8,15.0,94,0.00,CLR,,0.25,0.0,WeatherDisplay:10.37,2013-05-10 07:26:00,
2013-05-10 02:31:00,59.0,57.3,29.80,West,281,6.4,7.0,94,0.00,CLR,,0.25,0.0,WeatherDisplay:10.37,2013-05-10 07:31:00,
2013-05-10 02:36:00,59.0,57.3,29.80,WNW,291,8.0,12.0,94,0.00,CLR,,0.25,0.0,WeatherDisplay:10.37,2013-05-10 07:36:00,
2013-05-10 02:41:00,59.0,57.3,29.80,NW,310,7.2,17.3,94,0.00,CLR,,0.25,0.0,WeatherDisplay:10.37,2013-05-10 07:41:00,
2013-05-10 02:46:00,59.0,57.3,29.80,West,277,6.9,11.5,94,0.00,CLR,,0.25,0.0,WeatherDisplay:10.37,2013-05-10 07:46:00,
2013-05-10 02:51:00,59.0,57.3,29.80,West,267,7.2,11.0,94,0.00,CLR,,0.25,0.0,WeatherDisplay:10.37,2013-05-10 07:51:00,
2013-05-10 02:56:00,59.0,57.3,29.80,WNW,290,5.6,10.4,94,0.00,CLR,,0.25,0.0,WeatherDisplay:10.37,2013-05-10 07:56:00,
2013-05-10 03:01:00,58.9,57.2,29.81,WNW,288,6.4,9.2,94,0.00,CLR,,0.25,0.0,WeatherDisplay:10.37,2013-05-10 08:01:00,
2013-05-10 03:06:00,58.8,57.1,29.81,WNW,286,7.8,17.0,94,0.00,CLR,,0.25,0.0,WeatherDisplay:10.37,2013-05-10 08:06:00,
2013-05-10 03:11:00,58.7,57.0,29.81,WNW,292,6.7,17.0,94,0.00,CLR,,0.25,0.0,WeatherDisplay:10.37,2013-05-10 08:11:00,
2013-05-10 03:16:00,58.7,57.0,29.81,WNW,296,4.3,17.0,94,0.00,CLR,,0.25,0.0,WeatherDisplay:10.37,2013-05-10 08:16:00,
2013-05-10 03:21:00,58.6,56.9,29.81,WNW,302,3.6,5.8,94,0.00,CLR,,0.25,0.0,WeatherDisplay:10.37,2013-05-10 08:21:00,
2013-05-10 03:26:00,58.6,56.9,29.81,NW,311,5.1,9.2,94,0.00,CLR,,0.25,0.0,WeatherDisplay:10.37,2013-05-10 08:26:00,
2013-05-10 03:31:00,58.4,56.7,29.81,NW,308,7.0,10.4,94,0.00,CLR,,0.25,0.0,WeatherDisplay:10.37,2013-05-10 08:31:00,
2013-05-10 03:36:00,58.3,56.6,29.82,WNW,290,5.2,7.0,94,0.00,CLR,,0.25,0.0,WeatherDisplay:10.37,2013-05-10 08:36:00,
2013-05-10 03:41:00,58.2,56.5,29.82,West,281,5.5,6.0,94,0.00,CLR,,0.25,0.0,WeatherDisplay:10.37,2013-05-10 08:41:00,
2013-05-10 03:46:00,58.1,56.4,29.82,WNW,289,7.2,11.0,94,0.00,CLR,,0.25,0.0,WeatherDisplay:10.37,2013-05-10 08:46:00,
2013-05-10 03:51:00,58.1,56.4,29.82,NW,304,6.1,10.4,94,0.00,CLR,,0.25,0.0,WeatherDisplay:10.37,2013-05-10 08:51:00,
2013-05-10 03:56:00,58.1,56.4,29.82,WNW,299,4.3,6.0,94,0.00,CLR,,0.25,0.0,WeatherDisplay:10.37,2013-05-10 08:56:00,
2013-05-10 04:01:00,58.1,56.4,29.82,WNW,290,5.4,9.2,94,0.00,CLR,,0.25,0.0,WeatherDisplay:10.37,2013-05-10 09:01:00,
2013-05-10 04:06:00,58.0,56.3,29.82,WNW,301,4.6,6.9,94,0.00,CLR,,0.25,0.0,WeatherDisplay:10.37,2013-05-10 09:06:00,
2013-05-10 04:11:00,58.0,56.3,29.82,WNW,282,6.0,8.1,94,0.00,CLR,,0.25,0.0,WeatherDisplay:10.37,2013-05-10 09:11:00,
2013-05-10 04:16:00,57.9,56.2,29.81,WNW,295,7.9,10.4,94,0.00,CLR,,0.25,0.0,WeatherDisplay:10.37,2013-05-10 09:16:00,
2013-05-10 04:21:00,57.9,55.9,29.81,West,279,7.7,13.0,93,0.00,CLR,,0.25,0.0,WeatherDisplay:10.37,2013-05-10 09:21:00,
2013-05-10 04:26:00,57.9,55.9,29.81,WNW,298,9.7,11.5,93,0.00,CLR,,0.25,0.0,WeatherDisplay:10.37,2013-05-10 09:26:00,
2013-05-10 04:31:00,57.9,55.9,29.80,WNW,300,7.9,11.5,93,0.00,CLR,,0.25,0.0,WeatherDisplay:10.37,2013-05-10 09:31:00,
2013-05-10 04:36:00,58.0,56.0,29.80,WNW,293,5.1,17.0,93,0.00,CLR,,0.25,0.0,WeatherDisplay:10.37,2013-05-10 09:36:00,
2013-05-10 04:41:00,57.9,55.9,29.80,WNW,293,3.7,4.6,93,0.00,CLR,,0.25,0.0,WeatherDisplay:10.37,2013-05-10 09:41:00,
2013-05-10 04:46:00,57.8,55.8,29.80,WNW,293,3.8,5.0,93,0.00,CLR,,0.25,0.0,WeatherDisplay:10.37,2013-05-10 09:46:00,
2013-05-10 04:51:00,57.7,55.7,29.80,WNW,292,3.6,17.0,93,0.00,CLR,,0.25,0.0,WeatherDisplay:10.37,2013-05-10 09:51:00,
2013-05-10 04:56:00,57.5,55.5,29.80,WNW,292,3.0,4.0,93,0.00,CLR,,0.25,0.0,WeatherDisplay:10.37,2013-05-10 09:56:00,
2013-05-10 05:01:00,57.5,55.5,29.80,WNW,288,4.7,6.9,93,0.00,CLR,,0.25,0.0,WeatherDisplay:10.37,2013-05-10 10:01:00,
2013-05-10 05:07:00,57.5,55.5,29.80,WNW,286,3.8,5.8,93,0.00,CLR,,0.25,0.0,WeatherDisplay:10.37,2013-05-10 10:07:00,
2013-05-10 05:12:00,57.5,55.5,29.81,WNW,287,4.7,5.0,93,0.00,CLR,,0.25,0.0,WeatherDisplay:10.37,2013-05-10 10:12:00,
2013-05-10 05:17:00,57.6,55.6,29.81,WNW,287,2.9,4.0,93,0.00,CLR,,0.25,0.0,WeatherDisplay:10.37,2013-05-10 10:17:00,
2013-05-10 05:22:00,57.6,55.6,29.81,West,281,3.6,17.0,93,0.00,OVC,,0.25,0.0,WeatherDisplay:10.37,2013-05-10 10:22:00,
2013-05-10 05:27:00,57.6,55.6,29.81,West,277,6.7,9.0,93,0.00,OVC,,0.25,0.0,WeatherDisplay:10.37,2013-05-10 10:27:00,
2013-05-10 05:32:00,57.5,55.5,29.82,West,279,5.3,7.0,93,0.00,OVC,,0.25,0.0,WeatherDisplay:10.37,2013-05-10 10:32:00,
2013-05-10 05:37:00,57.6,55.6,29.82,WNW,283,7.1,9.2,93,0.00,OVC,,0.25,0.0,WeatherDisplay:10.37,2013-05-10 10:37:00,
2013-05-10 05:42:00,57.5,55.5,29.82,WNW,283,6.2,9.2,93,0.00,OVC,,0.25,0.0,WeatherDisplay:10.37,2013-05-10 10:42:00,
2013-05-10 05:47:00,57.5,55.5,29.82,WNW,293,5.7,17.0,93,0.00,OVC,,0.25,0.0,WeatherDisplay:10.37,2013-05-10 10:47:00,
2013-05-10 05:52:00,57.5,55.5,29.82,WNW,291,7.0,17.0,93,0.00,OVC,,0.25,0.0,WeatherDisplay:10.37,2013-05-10 10:52:00,
2013-05-10 05:57:00,57.4,55.4,29.83,WNW,290,4.3,6.9,93,0.00,OVC,,0.25,0.0,WeatherDisplay:10.37,2013-05-10 10:57:00,
2013-05-10 06:02:00,57.4,55.4,29.83,WNW,287,5.7,7.0,93,0.00,OVC,,0.25,0.0,WeatherDisplay:10.37,2013-05-10 11:02:00,
2013-05-10 06:07:00,57.4,55.4,29.83,WNW,292,15.9,20.7,93,0.00,OVC,,0.25,0.0,WeatherDisplay:10.37,2013-05-10 11:07:00,
2013-05-10 06:12:00,56.8,54.5,29.84,NNW,327,9.0,13.8,92,0.00,OVC,,0.25,0.0,WeatherDisplay:10.37,2013-05-10 11:12:00,
2013-05-10 06:17:00,56.0,54.0,29.84,WNW,300,10.7,15.0,93,0.00,OVC,,0.25,0.0,WeatherDisplay:10.37,2013-05-10 11:17:00,
2013-05-10 06:22:00,55.5,53.5,29.85,NNW,343,9.3,22.0,93,0.00,OVC,,0.25,0.0,WeatherDisplay:10.37,2013-05-10 11:22:00,
2013-05-10 06:27:00,55.2,53.2,29.85,NNW,330,6.6,22.0,93,0.00,OVC,,0.25,0.0,WeatherDisplay:10.37,2013-05-10 11:27:00,
2013-05-10 06:32:00,54.9,52.9,29.85,NW,321,6.4,12.0,93,0.00,OVC,,0.25,0.0,WeatherDisplay:10.37,2013-05-10 11:32:00,
2013-05-10 06:37:00,54.7,52.7,29.86,North,11,5.2,8.1,93,0.00,OVC,,0.25,6.2,WeatherDisplay:10.37,2013-05-10 11:37:00,
2013-05-10 06:42:00,54.3,52.3,29.86,NNW,335,8.4,11.5,93,0.00,OVC,,0.25,6.2,WeatherDisplay:10.37,2013-05-10 11:42:00,
2013-05-10 06:47:00,53.8,51.8,29.87,North,360,8.7,15.0,93,0.00,OVC,,0.25,11.2,WeatherDisplay:10.37,2013-05-10 11:47:00,
2013-05-10 06:52:00,53.3,51.3,29.87,North,11,4.3,22.0,93,0.00,OVC,,0.25,11.2,WeatherDisplay:10.37,2013-05-10 11:52:00,
2013-05-10 06:57:00,53.0,51.0,29.88,North,355,4.0,7.0,93,0.00,OVC,,0.25,8.7,WeatherDisplay:10.37,2013-05-10 11:57:00,
2013-05-10 07:02:00,52.9,50.9,29.88,NNE,13,8.2,12.0,93,0.00,RA,,0.00,13.6,WeatherDisplay:10.37,2013-05-10 12:02:00,
2013-05-10 07:07:00,52.6,50.6,29.88,North,355,5.4,11.5,93,0.00,RA,,0.00,17.4,WeatherDisplay:10.37,2013-05-10 12:07:00,
2013-05-10 07:12:00,52.4,50.4,29.88,NNW,341,6.1,22.0,93,0.00,OVC,,0.00,23.6,WeatherDisplay:10.37,2013-05-10 12:12:00,
2013-05-10 07:17:00,52.2,50.2,29.88,North,360,6.4,10.4,93,0.00,OVC,,0.00,23.6,WeatherDisplay:10.37,2013-05-10 12:17:00,
2013-05-10 07:22:00,52.1,50.1,29.88,NE,55,5.5,9.0,93,0.00,OVC,,0.00,32.2,WeatherDisplay:10.37,2013-05-10 12:22:00,
2013-05-10 07:27:00,51.9,49.9,29.88,NNW,345,9.5,12.7,93,0.00,OVC,,0.00,31.0,WeatherDisplay:10.37,2013-05-10 12:27:00,
2013-05-10 07:32:00,51.8,49.8,29.89,NNE,28,9.0,12.0,93,0.00,OVC,,0.00,31.0,WeatherDisplay:10.37,2013-05-10 12:32:00,
2013-05-10 07:37:00,51.8,49.8,29.89,NNE,15,3.6,6.0,93,0.00,OVC,,0.00,37.2,WeatherDisplay:10.37,2013-05-10 12:37:00,
2013-05-10 07:42:00,51.8,49.8,29.89,NNW,345,5.4,22.0,93,0.00,OVC,,0.00,31.0,WeatherDisplay:10.37,2013-05-10 12:42:00,
2013-05-10 07:47:00,51.8,49.8,29.89,NNW,344,4.6,6.9,93,0.00,OVC,,0.00,28.5,WeatherDisplay:10.37,2013-05-10 12:47:00,
2013-05-10 07:52:00,51.8,49.8,29.89,NW,316,5.8,11.5,93,0.00,OVC,,0.00,52.1,WeatherDisplay:10.37,2013-05-10 12:52:00,
2013-05-10 07:57:00,51.7,49.7,29.89,NNE,26,10.2,13.0,93,0.00,OVC,,0.00,71.9,WeatherDisplay:10.37,2013-05-10 12:57:00,
2013-05-10 08:02:00,51.6,49.6,29.89,NNW,344,6.3,11.5,93,0.00,OVC,,0.00,78.1,WeatherDisplay:10.37,2013-05-10 13:02:00,
2013-05-10 08:07:00,51.5,49.5,29.89,North,350,6.0,11.0,93,0.00,OVC,,0.00,63.2,WeatherDisplay:10.37,2013-05-10 13:07:00,
2013-05-10 08:12:00,51.5,49.5,29.90,NW,308,7.5,15.0,93,0.00,OVC,,0.00,57.0,WeatherDisplay:10.37,2013-05-10 13:12:00,
2013-05-10 08:17:00,51.4,49.4,29.90,North,350,6.8,12.0,93,0.00,OVC,,0.00,85.6,WeatherDisplay:10.37,2013-05-10 13:17:00,
2013-05-10 08:22:00,51.4,49.4,29.90,NNE,23,5.1,7.0,93,0.00,OVC,,0.00,111.6,WeatherDisplay:10.37,2013-05-10 13:22:00,
2013-05-10 08:27:00,51.5,49.5,29.89,NNE,26,6.3,10.4,93,0.00,OVC,,0.00,181.0,WeatherDisplay:10.37,2013-05-10 13:27:00,
2013-05-10 08:32:00,51.6,49.6,29.89,NNW,327,8.0,13.8,93,0.00,BKN,,0.00,193.4,WeatherDisplay:10.37,2013-05-10 13:32:00,
2013-05-10 08:37:00,51.8,49.8,29.89,NNW,331,4.7,11.5,93,0.00,SCT,,0.00,220.7,WeatherDisplay:10.37,2013-05-10 13:37:00,
2013-05-10 08:42:00,51.9,49.9,29.89,NNW,334,4.0,11.5,93,0.00,SCT,,0.00,230.6,WeatherDisplay:10.37,2013-05-10 13:42:00,
2013-05-10 08:47:00,52.3,50.3,29.90,NNE,14,4.1,6.9,93,0.00,SCT,,0.00,209.6,WeatherDisplay:10.37,2013-05-10 13:47:00,
2013-05-10 08:52:00,52.4,50.1,29.90,NNW,348,8.6,13.0,92,0.00,BKN,,0.00,155.0,WeatherDisplay:10.37,2013-05-10 13:52:00,
2013-05-10 08:57:00,52.2,49.9,29.90,NNW,338,10.7,13.8,92,0.00,BKN,,0.00,124.0,WeatherDisplay:10.37,2013-05-10 13:57:00,
2013-05-10 09:02:00,52.0,49.7,29.90,North,360,5.0,9.2,92,0.00,OVC,,0.00,106.6,WeatherDisplay:10.37,2013-05-10 14:02:00,
2013-05-10 09:07:00,51.9,49.4,29.90,NNW,345,6.0,12.7,91,0.00,OVC,,0.00,121.5,WeatherDisplay:10.37,2013-05-10 14:07:00,
2013-05-10 09:12:00,51.7,49.2,29.91,NW,319,6.3,10.4,91,0.00,OVC,,0.00,178.6,WeatherDisplay:10.37,2013-05-10 14:12:00,
2013-05-10 09:17:00,51.6,49.4,29.91,NNW,331,3.8,7.0,92,0.00,BKN,,0.00,374.5,WeatherDisplay:10.37,2013-05-10 14:17:00,
2013-05-10 09:22:00,51.7,49.2,29.91,North,355,8.5,12.0,91,0.00,SCT,,0.00,290.2,WeatherDisplay:10.37,2013-05-10 14:22:00,
2013-05-10 09:27:00,51.9,49.4,29.91,NW,326,5.0,22.0,91,0.00,SCT,,0.00,224.4,WeatherDisplay:10.37,2013-05-10 14:27:00,
2013-05-10 09:32:00,51.9,49.4,29.92,North,360,6.9,9.2,91,0.00,BKN,,0.00,137.6,WeatherDisplay:10.37,2013-05-10 14:32:00,
2013-05-10 09:37:00,51.7,48.9,29.92,NNE,16,6.4,22.0,90,0.00,OVC,,0.00,130.2,WeatherDisplay:10.37,2013-05-10 14:37:00,
2013-05-10 09:42:00,51.6,48.8,29.92,NNW,342,7.0,11.5,90,0.00,OVC,,0.00,150.0,WeatherDisplay:10.37,2013-05-10 14:42:00,
2013-05-10 09:47:00,51.5,48.4,29.92,NNW,342,4.1,7.0,89,0.00,OVC,,0.00,235.6,WeatherDisplay:10.37,2013-05-10 14:47:00,
2013-05-10 09:52:00,51.4,48.3,29.92,NNW,330,4.6,11.5,89,0.00,OVC,,0.00,239.3,WeatherDisplay:10.37,2013-05-10 14:52:00,
2013-05-10 09:57:00,51.6,48.5,29.92,NNW,341,4.1,5.8,89,0.00,BKN,,0.00,569.2,WeatherDisplay:10.37,2013-05-10 14:57:00,
2013-05-10 10:02:00,51.8,48.4,29.92,NNW,346,7.7,12.0,88,0.00,SCT,,0.00,244.3,WeatherDisplay:10.37,2013-05-10 15:02:00,
2013-05-10 10:07:00,52.0,48.3,29.92,North,360,10.7,13.0,87,0.00,SCT,,0.00,248.0,WeatherDisplay:10.37,2013-05-10 15:07:00,
2013-05-10 10:12:00,52.1,48.0,29.92,NW,304,6.8,12.7,86,0.00,OVC,,0.00,176.1,WeatherDisplay:10.37,2013-05-10 15:12:00,
2013-05-10 10:17:00,52.2,48.1,29.92,NNW,347,5.1,9.2,86,0.00,OVC,,0.00,207.1,WeatherDisplay:10.37,2013-05-10 15:17:00,
2013-05-10 10:22:00,52.1,47.7,29.92,NNE,22,8.0,12.7,85,0.00,OVC,,0.00,213.3,WeatherDisplay:10.37,2013-05-10 15:22:00,
2013-05-10 10:27:00,52.1,47.7,29.93,North,349,5.3,8.0,85,0.00,OVC,,0.00,202.1,WeatherDisplay:10.37,2013-05-10 15:27:00,
2013-05-10 10:32:00,52.0,47.3,29.93,NNW,345,4.2,9.2,84,0.00,OVC,,0.00,157.5,WeatherDisplay:10.37,2013-05-10 15:32:00,
2013-05-10 10:37:00,52.0,47.6,29.93,North,360,4.8,7.0,85,0.00,OVC,,0.00,169.9,WeatherDisplay:10.37,2013-05-10 15:37:00,
2013-05-10 10:42:00,52.1,47.7,29.93,NNW,348,3.0,5.8,85,0.00,OVC,,0.00,220.7,WeatherDisplay:10.37,2013-05-10 15:42:00,
2013-05-10 10:47:00,52.1,47.7,29.93,NNW,345,4.6,11.5,85,0.00,OVC,,0.00,207.1,WeatherDisplay:10.37,2013-05-10 15:47:00,
2013-05-10 10:52:00,51.9,47.5,29.94,North,355,8.7,12.7,85,0.00,OVC,,0.00,337.3,WeatherDisplay:10.37,2013-05-10 15:52:00,
2013-05-10 10:57:00,51.9,47.5,29.94,NNW,339,4.8,6.9,85,0.00,OVC,,0.00,229.4,WeatherDisplay:10.37,2013-05-10 15:57:00,
2013-05-10 11:02:00,52.1,47.7,29.94,North,350,5.0,9.2,85,0.00,OVC,,0.00,222.0,WeatherDisplay:10.37,2013-05-10 16:02:00,
2013-05-10 11:07:00,52.1,47.7,29.94,NNW,346,3.8,6.0,85,0.00,OVC,,0.00,213.3,WeatherDisplay:10.37,2013-05-10 16:07:00,
2013-05-10 11:12:00,52.0,47.3,29.94,North,5,10.4,13.0,84,0.00,OVC,,0.00,256.7,WeatherDisplay:10.37,2013-05-10 16:12:00,
2013-05-10 11:17:00,52.0,47.6,29.94,NNW,348,5.8,9.0,85,0.00,OVC,,0.00,292.6,WeatherDisplay:10.37,2013-05-10 16:17:00,
2013-05-10 11:22:00,52.2,47.8,29.94,NNW,333,4.9,7.0,85,0.00,OVC,,0.00,298.8,WeatherDisplay:10.37,2013-05-10 16:22:00,
2013-05-10 11:27:00,52.3,47.9,29.95,NW,326,7.1,12.0,85,0.00,OVC,,0.00,259.2,WeatherDisplay:10.37,2013-05-10 16:27:00,
2013-05-10 11:32:00,52.3,47.9,29.94,North,350,5.1,10.4,85,0.00,OVC,,0.00,250.5,WeatherDisplay:10.37,2013-05-10 16:32:00,
2013-05-10 11:37:00,52.2,47.8,29.95,NNW,336,6.1,11.0,85,0.00,OVC,,0.00,230.6,WeatherDisplay:10.37,2013-05-10 16:37:00,
2013-05-10 11:42:00,52.1,47.7,29.95,NNW,336,4.9,10.4,85,0.00,OVC,,0.00,253.0,WeatherDisplay:10.37,2013-05-10 16:42:00,
2013-05-10 11:47:00,52.0,47.6,29.94,North,355,4.9,7.0,85,0.00,OVC,,0.00,244.3,WeatherDisplay:10.37,2013-05-10 16:47:00,
2013-05-10 11:52:00,52.1,48.0,29.95,NNW,336,5.3,11.5,86,0.00,OVC,,0.00,261.6,WeatherDisplay:10.37,2013-05-10 16:52:00,
2013-05-10 11:57:00,52.3,48.2,29.95,NNE,26,5.0,9.0,86,0.00,OVC,,0.00,373.2,WeatherDisplay:10.37,2013-05-10 16:57:00,
2013-05-10 12:02:00,52.4,48.0,29.95,NNE,22,8.1,11.5,85,0.00,OVC,,0.00,272.8,WeatherDisplay:10.37,2013-05-10 17:02:00,
2013-05-10 12:07:00,52.4,47.7,29.95,NW,319,10.4,12.0,84,0.00,OVC,,0.00,339.8,WeatherDisplay:10.37,2013-05-10 17:07:00,
2013-05-10 12:12:00,52.4,47.7,29.95,NNW,337,9.3,13.8,84,0.00,OVC,,0.00,292.6,WeatherDisplay:10.37,2013-05-10 17:12:00,
2013-05-10 12:17:00,52.4,47.7,29.95,NW,324,7.1,13.8,84,0.00,OVC,,0.00,318.7,WeatherDisplay:10.37,2013-05-10 17:17:00,
2013-05-10 12:22:00,52.4,47.7,29.95,NNW,328,7.4,12.7,84,0.00,OVC,,0.00,274.0,WeatherDisplay:10.37,2013-05-10 17:22:00,
2013-05-10 12:27:00,52.4,47.7,29.95,WNW,302,6.2,10.4,84,0.00,OVC,,0.00,416.6,WeatherDisplay:10.37,2013-05-10 17:27:00,
2013-05-10 12:32:00,52.5,48.1,29.95,NNW,336,8.9,11.5,85,0.00,OVC,,0.00,391.8,WeatherDisplay:10.37,2013-05-10 17:32:00,
2013-05-10 12:37:00,52.8,48.4,29.95,North,360,5.3,6.9,85,0.00,BKN,,0.00,310.0,WeatherDisplay:10.37,2013-05-10 17:37:00,
2013-05-10 12:42:00,52.9,48.2,29.95,NW,304,7.2,11.5,84,0.00,OVC,,0.00,284.0,WeatherDisplay:10.37,2013-05-10 17:42:00,
2013-05-10 12:47:00,52.8,47.8,29.95,NNW,348,8.2,11.5,83,0.00,OVC,,0.00,316.2,WeatherDisplay:10.37,2013-05-10 17:47:00,
2013-05-10 12:52:00,53.0,48.0,29.95,West,280,4.9,7.0,83,0.00,OVC,,0.00,305.0,WeatherDisplay:10.37,2013-05-10 17:52:00,
2013-05-10 12:57:00,53.2,48.2,29.95,WNW,298,7.1,11.0,83,0.00,OVC,,0.00,285.2,WeatherDisplay:10.37,2013-05-10 17:57:00,
2013-05-10 13:02:00,53.1,48.1,29.95,WNW,298,5.3,13.0,83,0.00,OVC,,0.00,302.6,WeatherDisplay:10.37,2013-05-10 18:02:00,
2013-05-10 13:07:00,53.0,47.7,29.95,WNW,293,9.8,14.0,82,0.00,OVC,,0.00,316.2,WeatherDisplay:10.37,2013-05-10 18:07:00,
2013-05-10 13:12:00,52.8,47.5,29.95,NNW,341,12.4,17.3,82,0.00,OVC,,0.00,307.5,WeatherDisplay:10.37,2013-05-10 18:12:00,
2013-05-10 13:17:00,52.6,47.6,29.95,NW,312,9.5,11.5,83,0.00,OVC,,0.00,238.1,WeatherDisplay:10.37,2013-05-10 18:17:00,
2013-05-10 13:22:00,52.5,47.5,29.95,NW,315,8.4,15.0,83,0.00,OVC,,0.00,337.3,WeatherDisplay:10.37,2013-05-10 18:22:00,
2013-05-10 13:27:00,52.6,47.6,29.95,NNW,340,4.7,9.2,83,0.00,OVC,,0.00,238.1,WeatherDisplay:10.37,2013-05-10 18:27:00,
2013-05-10 13:32:00,52.6,47.6,29.95,NNW,339,7.2,12.0,83,0.00,OVC,,0.00,259.2,WeatherDisplay:10.37,2013-05-10 18:32:00,
2013-05-10 13:37:00,52.8,47.8,29.95,NNW,340,7.9,13.8,83,0.00,OVC,,0.00,218.2,WeatherDisplay:10.37,2013-05-10 18:37:00,
2013-05-10 13:42:00,52.8,47.8,29.96,North,355,3.3,5.0,83,0.00,OVC,,0.00,226.9,WeatherDisplay:10.37,2013-05-10 18:42:00,
2013-05-10 13:47:00,52.9,47.9,29.96,NNW,341,3.9,7.0,83,0.00,OVC,,0.00,187.2,WeatherDisplay:10.37,2013-05-10 18:47:00,
2013-05-10 13:52:00,53.0,48.0,29.96,North,10,4.4,7.0,83,0.00,OVC,,0.00,163.7,WeatherDisplay:10.37,2013-05-10 18:52:00,
2013-05-10 13:57:00,53.0,48.0,29.96,North,355,6.3,11.5,83,0.00,OVC,,0.00,220.7,WeatherDisplay:10.37,2013-05-10 18:57:00,
2013-05-10 14:02:00,52.8,47.8,29.96,NW,321,6.8,9.2,83,0.00,OVC,,0.00,212.0,WeatherDisplay:10.37,2013-05-10 19:02:00,
2013-05-10 14:07:00,52.8,47.8,29.96,NNW,344,3.2,7.0,83,0.00,OVC,,0.00,226.9,WeatherDisplay:10.37,2013-05-10 19:07:00,
2013-05-10 14:12:00,52.9,47.9,29.96,NNW,334,8.1,11.5,83,0.00,OVC,,0.00,224.4,WeatherDisplay:10.37,2013-05-10 19:12:00,
2013-05-10 14:17:00,53.0,48.0,29.96,North,355,7.0,11.5,83,0.00,OVC,,0.00,172.4,WeatherDisplay:10.37,2013-05-10 19:17:00,
2013-05-10 14:22:00,53.1,48.1,29.96,NNE,29,6.4,9.2,83,0.00,OVC,,0.00,157.5,WeatherDisplay:10.37,2013-05-10 19:22:00,
2013-05-10 14:27:00,53.0,48.0,29.96,NNW,335,6.9,10.4,83,0.00,OVC,,0.00,158.7,WeatherDisplay:10.37,2013-05-10 19:27:00,
2013-05-10 14:32:00,52.8,47.8,29.96,NW,321,7.5,11.5,83,0.00,OVC,,0.00,169.9,WeatherDisplay:10.37,2013-05-10 19:32:00,
2013-05-10 14:37:00,52.7,47.7,29.95,NW,321,6.9,11.5,83,0.00,OVC,,0.00,256.7,WeatherDisplay:10.37,2013-05-10 19:37:00,
2013-05-10 14:42:00,52.8,48.1,29.95,NNW,334,6.9,11.5,84,0.00,OVC,,0.00,276.5,WeatherDisplay:10.37,2013-05-10 19:42:00,
2013-05-10 14:47:00,52.7,47.7,29.96,NNW,336,7.1,15.0,83,0.00,OVC,,0.00,302.6,WeatherDisplay:10.37,2013-05-10 19:47:00,
2013-05-10 14:52:00,52.8,47.8,29.96,NNE,18,5.7,7.0,83,0.00,OVC,,0.00,184.8,WeatherDisplay:10.37,2013-05-10 19:52:00,
2013-05-10 14:57:00,52.9,48.2,29.96,North,5,3.0,5.8,84,0.00,OVC,,0.00,158.7,WeatherDisplay:10.37,2013-05-10 19:57:00,
2013-05-10 15:02:00,53.2,48.5,29.96,North,355,3.3,5.0,84,0.00,OVC,,0.00,229.4,WeatherDisplay:10.37,2013-05-10 20:02:00,
2013-05-10 15:07:00,53.1,48.1,29.96,NNW,344,8.4,11.5,83,0.00,OVC,,0.00,368.3,WeatherDisplay:10.37,2013-05-10 20:07:00,
2013-05-10 15:12:00,53.1,48.1,29.96,North,5,6.8,11.5,83,0.00,OVC,,0.00,233.1,WeatherDisplay:10.37,2013-05-10 20:12:00,
2013-05-10 15:17:00,53.0,48.0,29.96,NW,325,5.8,9.2,83,0.00,OVC,,0.00,174.8,WeatherDisplay:10.37,2013-05-10 20:17:00,
2013-05-10 15:22:00,53.1,48.1,29.96,NNW,333,4.7,6.0,83,0.00,OVC,,0.00,178.6,WeatherDisplay:10.37,2013-05-10 20:22:00,
2013-05-10 15:27:00,53.1,48.1,29.96,NNE,16,5.9,8.0,83,0.00,OVC,,0.00,174.8,WeatherDisplay:10.37,2013-05-10 20:27:00,
2013-05-10 15:32:00,53.0,48.0,29.96,NW,323,5.7,10.4,83,0.00,OVC,,0.00,112.8,WeatherDisplay:10.37,2013-05-10 20:32:00,
2013-05-10 15:37:00,53.1,48.1,29.96,NNE,13,6.7,9.2,83,0.00,OVC,,0.00,121.5,WeatherDisplay:10.37,2013-05-10 20:37:00,
2013-05-10 15:42:00,53.0,48.0,29.96,NNE,13,5.6,10.0,83,0.00,OVC,,0.00,174.8,WeatherDisplay:10.37,2013-05-10 20:42:00,
2013-05-10 15:48:00,53.0,48.0,29.97,North,351,5.2,7.0,83,0.00,OVC,,0.00,167.4,WeatherDisplay:10.37,2013-05-10 20:48:00,
2013-05-10 15:53:00,53.1,48.1,29.97,WNW,303,8.3,11.0,83,0.00,OVC,,0.00,121.5,WeatherDisplay:10.37,2013-05-10 20:53:00,
2013-05-10 15:58:00,53.1,48.1,29.97,NNW,336,7.5,12.0,83,0.00,OVC,,0.00,115.3,WeatherDisplay:10.37,2013-05-10 20:58:00,
2013-05-10 16:03:00,53.1,48.1,29.97,NE,47,1.3,5.8,83,0.00,OVC,,0.00,112.8,WeatherDisplay:10.37,2013-05-10 21:03:00,
2013-05-10 16:08:00,53.2,48.2,29.97,NNW,342,5.8,11.5,83,0.00,OVC,,0.00,100.4,WeatherDisplay:10.37,2013-05-10 21:08:00,
2013-05-10 16:13:00,53.2,48.2,29.97,NW,315,7.1,10.4,83,0.00,OVC,,0.00,111.6,WeatherDisplay:10.37,2013-05-10 21:13:00,
2013-05-10 16:18:00,53.0,48.0,29.97,NNW,331,5.0,9.2,83,0.00,OVC,,0.00,104.2,WeatherDisplay:10.37,2013-05-10 21:18:00,
2013-05-10 16:23:00,53.0,48.0,29.97,NW,310,6.3,9.2,83,0.00,OVC,,0.00,112.8,WeatherDisplay:10.37,2013-05-10 21:23:00,
2013-05-10 16:28:00,52.9,48.2,29.97,NNW,345,5.3,10.4,84,0.00,OVC,,0.00,120.3,WeatherDisplay:10.37,2013-05-10 21:28:00,
2013-05-10 16:33:00,52.9,47.9,29.97,NW,310,3.4,10.4,83,0.00,OVC,,0.00,95.5,WeatherDisplay:10.37,2013-05-10 21:33:00,
2013-05-10 16:38:00,52.8,47.8,29.97,NNW,336,9.5,12.7,83,0.00,OVC,,0.00,85.6,WeatherDisplay:10.37,2013-05-10 21:38:00,
2013-05-10 16:43:00,52.7,48.0,29.97,NNW,342,7.4,11.5,84,0.00,OVC,,0.00,86.8,WeatherDisplay:10.37,2013-05-10 21:43:00,
2013-05-10 16:48:00,52.7,48.0,29.97,North,355,5.1,7.0,84,0.00,OVC,,0.00,89.3,WeatherDisplay:10.37,2013-05-10 21:48:00,
2013-05-10 16:53:00,52.7,48.0,29.96,NW,322,5.6,7.0,84,0.00,OVC,,0.00,100.4,WeatherDisplay:10.37,2013-05-10 21:53:00,
2013-05-10 16:58:00,52.8,48.4,29.97,NNW,338,6.5,10.4,85,0.00,OVC,,0.00,100.4,WeatherDisplay:10.37,2013-05-10 21:58:00,
2013-05-10 16:59:00,52.8,48.4,29.97,NNW,335,4.6,6.9,85,0.00,OVC,,0.00,102.9,WeatherDisplay:10.37,2013-05-10 21:59:00,
2013-05-10 17:04:00,52.8,48.4,29.97,NNW,330,4.5,9.2,85,0.00,OVC,,0.00,83.1,WeatherDisplay:10.37,2013-05-10 22:04:00,
2013-05-10 17:09:00,52.8,48.4,29.97,North,360,4.7,6.9,85,0.00,OVC,,0.00,74.4,WeatherDisplay:10.37,2013-05-10 22:09:00,
2013-05-10 17:14:00,52.8,48.4,29.97,NNW,338,3.5,6.0,85,0.00,OVC,,0.00,63.2,WeatherDisplay:10.37,2013-05-10 22:14:00,
2013-05-10 17:19:00,52.9,48.5,29.97,NW,309,5.4,9.2,85,0.00,OVC,,0.00,130.2,WeatherDisplay:10.37,2013-05-10 22:19:00,
2013-05-10 17:24:00,52.9,48.5,29.96,NW,311,5.2,7.0,85,0.00,OVC,,0.00,155.0,WeatherDisplay:10.37,2013-05-10 22:24:00,
2013-05-10 17:29:00,53.0,48.6,29.96,North,355,3.7,4.6,85,0.00,OVC,,0.00,94.2,WeatherDisplay:10.37,2013-05-10 22:29:00,
2013-05-10 17:34:00,53.2,48.8,29.96,NNW,329,3.5,6.9,85,0.00,OVC,,0.00,80.6,WeatherDisplay:10.37,2013-05-10 22:34:00,
2013-05-10 17:39:00,53.2,48.8,29.96,NNW,345,3.4,4.6,85,0.00,OVC,,0.00,98.0,WeatherDisplay:10.37,2013-05-10 22:39:00,
2013-05-10 17:44:00,53.3,48.9,29.96,NNW,346,4.8,6.9,85,0.00,OVC,,0.00,94.2,WeatherDisplay:10.37,2013-05-10 22:44:00,
2013-05-10 17:49:00,53.3,48.9,29.96,NNW,338,3.2,5.0,85,0.00,OVC,,0.00,143.8,WeatherDisplay:10.37,2013-05-10 22:49:00,
2013-05-10 17:54:00,53.4,49.0,29.96,NNW,341,4.6,6.9,85,0.00,OVC,,0.00,104.2,WeatherDisplay:10.37,2013-05-10 22:54:00,
2013-05-10 17:59:00,53.5,48.8,29.96,NNE,13,4.0,6.9,84,0.00,OVC,,0.00,78.1,WeatherDisplay:10.37,2013-05-10 22:59:00,
2013-05-10 18:04:00,53.5,48.8,29.97,NNW,333,4.4,5.8,84,0.00,OVC,,0.00,71.9,WeatherDisplay:10.37,2013-05-10 23:04:00,
2013-05-10 18:09:00,53.5,48.8,29.97,NW,315,3.6,4.6,84,0.00,OVC,,0.00,83.1,WeatherDisplay:10.37,2013-05-10 23:09:00,
2013-05-10 18:14:00,53.5,48.8,29.97,NNW,330,2.7,4.6,84,0.00,OVC,,0.00,86.8,WeatherDisplay:10.37,2013-05-10 23:14:00,
2013-05-10 18:19:00,53.6,48.9,29.97,NNW,335,3.9,5.8,84,0.00,OVC,,0.00,74.4,WeatherDisplay:10.37,2013-05-10 23:19:00,
2013-05-10 18:24:00,53.7,49.0,29.97,NW,321,3.3,5.0,84,0.00,OVC,,0.00,80.6,WeatherDisplay:10.37,2013-05-10 23:24:00,
2013-05-10 18:29:00,53.7,49.0,29.97,NW,321,3.1,5.0,84,0.00,OVC,,0.00,80.6,WeatherDisplay:10.37,2013-05-10 23:29:00,
2013-05-10 18:34:00,53.7,49.0,29.97,NW,311,6.0,11.0,84,0.00,OVC,,0.00,57.0,WeatherDisplay:10.37,2013-05-10 23:34:00,
2013-05-10 18:39:00,53.7,49.0,29.97,North,5,4.9,6.9,84,0.00,OVC,,0.00,49.6,WeatherDisplay:10.37,2013-05-10 23:39:00,
2013-05-10 18:44:00,53.6,48.9,29.97,NW,323,4.8,8.1,84,0.00,OVC,,0.00,54.6,WeatherDisplay:10.37,2013-05-10 23:44:00,
2013-05-10 18:49:00,53.7,49.0,29.97,NW,325,3.9,6.0,84,0.00,OVC,,0.00,32.2,WeatherDisplay:10.37,2013-05-10 23:49:00,
2013-05-10 18:54:00,53.7,49.0,29.97,NW,313,5.2,7.0,84,0.00,OVC,,0.00,26.0,WeatherDisplay:10.37,2013-05-10 23:54:00,
2013-05-10 18:59:00,53.6,48.9,29.97,NW,314,3.3,5.0,84,0.00,OVC,,0.00,26.0,WeatherDisplay:10.37,2013-05-10 23:59:00,
2013-05-10 19:04:00,53.6,49.2,29.97,NW,318,2.7,4.6,85,0.00,OVC,,0.00,26.0,WeatherDisplay:10.37,2013-05-11 00:04:00,
2013-05-10 19:09:00,53.6,49.2,29.98,NNW,334,2.2,4.6,85,0.00,OVC,,0.00,23.6,WeatherDisplay:10.37,2013-05-11 00:09:00,
2013-05-10 19:14:00,53.6,49.2,29.98,NNW,334,3.5,4.0,85,0.00,OVC,,0.00,23.6,WeatherDisplay:10.37,2013-05-11 00:14:00,
2013-05-10 19:19:00,53.6,49.2,29.98,NNW,334,3.3,4.0,85,0.00,OVC,,0.00,22.3,WeatherDisplay:10.37,2013-05-11 00:19:00,
2013-05-10 19:24:00,53.5,49.1,29.98,NNW,334,0.6,3.0,85,0.00,OVC,,0.00,19.8,WeatherDisplay:10.37,2013-05-11 00:24:00,
2013-05-10 19:29:00,53.6,49.2,29.98,NNW,338,1.1,3.0,85,0.00,OVC,,0.00,19.8,WeatherDisplay:10.37,2013-05-11 00:29:00,
2013-05-10 19:34:00,53.6,49.2,29.98,NNW,337,2.1,3.5,85,0.00,OVC,,0.00,17.4,WeatherDisplay:10.37,2013-05-11 00:34:00,
2013-05-10 19:39:00,53.6,49.2,29.98,NNW,338,1.2,3.5,85,0.00,OVC,,0.00,13.6,WeatherDisplay:10.37,2013-05-11 00:39:00,
2013-05-10 19:44:00,53.6,49.2,29.98,NNW,338,1.0,3.5,85,0.00,OVC,,0.00,8.7,WeatherDisplay:10.37,2013-05-11 00:44:00,
2013-05-10 19:49:00,53.6,49.2,29.99,NNW,337,2.2,3.5,85,0.00,OVC,,0.00,6.2,WeatherDisplay:10.37,2013-05-11 00:49:00,
2013-05-10 19:54:00,53.6,49.2,29.98,NNW,338,1.1,2.3,85,0.00,OVC,,0.00,6.2,WeatherDisplay:10.37,2013-05-11 00:54:00,
2013-05-10 19:59:00,53.6,49.2,29.99,NNW,338,0.1,1.0,85,0.00,OVC,,0.00,0.0,WeatherDisplay:10.37,2013-05-11 00:59:00,
2013-05-10 20:04:00,53.6,49.2,29.99,NNW,337,1.5,3.5,85,0.00,OVC,,0.00,0.0,WeatherDisplay:10.37,2013-05-11 01:04:00,
2013-05-10 20:09:00,53.6,49.2,29.99,NNW,338,0.0,0.0,85,0.00,OVC,,0.00,0.0,WeatherDisplay:10.37,2013-05-11 01:09:00,
2013-05-10 20:14:00,53.6,49.2,29.99,NNW,338,0.0,0.0,85,0.00,OVC,,0.00,0.0,WeatherDisplay:10.37,2013-05-11 01:14:00,
2013-05-10 20:19:00,53.6,49.2,29.99,NNW,338,0.2,1.0,85,0.00,OVC,,0.00,0.0,WeatherDisplay:10.37,2013-05-11 01:19:00,
2013-05-10 20:24:00,53.5,49.1,29.99,NNW,338,0.0,0.0,85,0.00,OVC,,0.00,0.0,WeatherDisplay:10.37,2013-05-11 01:24:00,
2013-05-10 20:29:00,53.5,49.1,29.99,NNW,337,0.5,1.2,85,0.00,OVC,,0.00,0.0,WeatherDisplay:10.37,2013-05-11 01:29:00,
2013-05-10 20:34:00,53.5,49.1,29.99,NNW,338,0.0,0.0,85,0.00,OVC,,0.00,0.0,WeatherDisplay:10.37,2013-05-11 01:34:00,
2013-05-10 20:39:00,53.5,49.1,29.99,NNW,338,0.0,0.0,85,0.00,OVC,,0.00,0.0,WeatherDisplay:10.37,2013-05-11 01:39:00,
2013-05-10 20:44:00,53.5,49.4,29.99,NNW,338,0.0,0.0,86,0.00,CLR,,0.00,0.0,WeatherDisplay:10.37,2013-05-11 01:44:00,
2013-05-10 20:49:00,53.4,49.3,29.99,NNW,338,0.0,0.0,86,0.00,CLR,,0.00,0.0,WeatherDisplay:10.37,2013-05-11 01:49:00,
2013-05-10 20:54:00,53.4,49.3,29.99,NNW,338,0.0,0.0,86,0.00,CLR,,0.00,0.0,WeatherDisplay:10.37,2013-05-11 01:54:00,
2013-05-10 20:59:00,53.4,49.3,29.99,NNW,338,0.0,0.0,86,0.00,CLR,,0.00,0.0,WeatherDisplay:10.37,2013-05-11 01:59:00,
2013-05-10 21:04:00,53.3,49.2,29.99,NNW,337,0.0,0.0,86,0.00,CLR,,0.00,0.0,WeatherDisplay:10.37,2013-05-11 02:04:00,
2013-05-10 21:09:00,53.4,49.3,29.99,NNW,337,0.0,0.0,86,0.00,CLR,,0.00,0.0,WeatherDisplay:10.37,2013-05-11 02:09:00,
2013-05-10 21:14:00,53.3,49.2,29.99,NNW,338,0.0,0.0,86,0.00,CLR,,0.00,0.0,WeatherDisplay:10.37,2013-05-11 02:14:00,
2013-05-10 21:19:00,53.4,49.3,29.99,NNW,337,0.0,0.0,86,0.00,CLR,,0.00,0.0,WeatherDisplay:10.37,2013-05-11 02:19:00,
2013-05-10 21:24:00,53.3,49.2,29.99,NNW,338,0.0,0.0,86,0.00,CLR,,0.00,0.0,WeatherDisplay:10.37,2013-05-11 02:24:00,
2013-05-10 21:29:00,53.3,49.2,29.99,NNW,338,0.0,0.0,86,0.00,CLR,,0.00,0.0,WeatherDisplay:10.37,2013-05-11 02:29:00,
2013-05-10 21:34:00,53.3,49.2,29.99,NNW,338,0.0,0.0,86,0.00,CLR,,0.00,0.0,WeatherDisplay:10.37,2013-05-11 02:34:00,
2013-05-10 21:39:00,53.3,49.2,29.99,NNW,338,0.0,0.0,86,0.00,CLR,,0.00,0.0,WeatherDisplay:10.37,2013-05-11 02:39:00,
2013-05-10 21:44:00,53.2,49.4,29.99,NNW,337,0.0,0.0,87,0.00,CLR,,0.00,0.0,WeatherDisplay:10.37,2013-05-11 02:44:00,
2013-05-10 21:49:00,53.2,49.4,29.99,NNW,337,0.0,0.0,87,0.00,CLR,,0.00,0.0,WeatherDisplay:10.37,2013-05-11 02:49:00,
2013-05-10 21:54:00,53.0,48.9,29.99,NNW,338,0.0,0.0,86,0.00,CLR,,0.00,0.0,WeatherDisplay:10.37,2013-05-11 02:54:00,
2013-05-10 21:59:00,52.9,48.8,29.99,NNW,337,0.0,0.0,86,0.00,CLR,,0.00,0.0,WeatherDisplay:10.37,2013-05-11 02:59:00,
2013-05-10 22:04:00,52.6,48.5,29.99,NNW,338,0.0,0.0,86,0.00,CLR,,0.00,0.0,WeatherDisplay:10.37,2013-05-11 03:04:00,
2013-05-10 22:09:00,52.4,48.6,29.99,NNW,338,0.0,0.0,87,0.00,CLR,,0.00,0.0,WeatherDisplay:10.37,2013-05-11 03:09:00,
2013-05-10 22:14:00,52.2,48.4,29.99,NNW,338,0.0,0.0,87,0.00,CLR,,0.00,0.0,WeatherDisplay:10.37,2013-05-11 03:14:00,
2013-05-10 22:19:00,51.9,48.2,29.99,NNW,337,0.0,0.0,87,0.00,CLR,,0.00,0.0,WeatherDisplay:10.37,2013-05-11 03:19:00,
2013-05-10 22:24:00,51.7,48.0,29.99,NNW,338,0.0,0.0,87,0.00,CLR,,0.00,0.0,WeatherDisplay:10.37,2013-05-11 03:24:00,
2013-05-10 22:29:00,51.5,47.8,29.99,NNW,338,0.0,0.0,87,0.00,CLR,,0.00,0.0,WeatherDisplay:10.37,2013-05-11 03:29:00,
2013-05-10 22:34:00,51.3,47.6,29.99,NNW,337,0.0,0.0,87,0.00,CLR,,0.00,0.0,WeatherDisplay:10.37,2013-05-11 03:34:00,
2013-05-10 22:39:00,51.1,47.4,29.99,NNW,338,0.0,0.0,87,0.00,CLR,,0.00,0.0,WeatherDisplay:10.37,2013-05-11 03:39:00,
2013-05-10 22:44:00,50.9,47.2,29.99,NNW,337,0.0,0.0,87,0.00,CLR,,0.00,0.0,WeatherDisplay:10.37,2013-05-11 03:44:00,
2013-05-10 22:49:00,50.6,46.9,29.99,NNW,338,0.0,0.0,87,0.00,CLR,,0.00,0.0,WeatherDisplay:10.37,2013-05-11 03:49:00,
2013-05-10 22:54:00,50.4,47.0,29.99,NNW,337,0.0,0.0,88,0.00,CLR,,0.00,0.0,WeatherDisplay:10.37,2013-05-11 03:54:00,
2013-05-10 22:59:00,50.3,46.9,29.99,NNW,338,0.0,0.0,88,0.00,CLR,,0.00,0.0,WeatherDisplay:10.37,2013-05-11 03:59:00,
2013-05-10 23:01:00,50.2,46.8,29.99,NNW,337,0.0,0.0,88,0.00,CLR,,0.00,0.0,WeatherDisplay:10.37,2013-05-11 04:01:00,
2013-05-10 23:06:00,50.0,46.6,29.99,NNW,338,0.0,0.0,88,0.00,CLR,,0.00,0.0,WeatherDisplay:10.37,2013-05-11 04:06:00,
2013-05-10 23:11:00,49.8,46.4,29.99,NNW,337,0.0,0.0,88,0.00,CLR,,0.00,0.0,WeatherDisplay:10.37,2013-05-11 04:11:00,
2013-05-10 23:16:00,49.6,46.2,29.99,NNW,337,0.0,0.0,88,0.00,CLR,,0.00,0.0,WeatherDisplay:10.37,2013-05-11 04:16:00,
2013-05-10 23:21:00,49.4,46.0,29.99,NNW,337,0.0,0.0,88,0.00,CLR,,0.00,0.0,WeatherDisplay:10.37,2013-05-11 04:21:00,
2013-05-10 23:26:00,49.2,45.8,30.00,NNW,338,0.0,0.0,88,0.00,CLR,,0.00,0.0,WeatherDisplay:10.37,2013-05-11 04:26:00,
2013-05-10 23:31:00,49.0,45.9,30.00,NNW,337,0.0,0.0,89,0.00,CLR,,0.00,0.0,WeatherDisplay:10.37,2013-05-11 04:31:00,
2013-05-10 23:36:00,48.9,45.8,30.00,NNW,338,0.0,0.0,89,0.00,CLR,,0.00,0.0,WeatherDisplay:10.37,2013-05-11 04:36:00,
2013-05-10 23:41:00,48.8,45.7,30.00,NNW,337,0.0,0.0,89,0.00,CLR,,0.00,0.0,WeatherDisplay:10.37,2013-05-11 04:41:00,
2013-05-10 23:46:00,48.7,45.6,30.00,NNW,337,0.0,0.0,89,0.00,CLR,,0.00,0.0,WeatherDisplay:10.37,2013-05-11 04:46:00,
2013-05-10 23:51:00,48.6,45.5,30.00,NNW,338,0.0,0.0,89,0.00,CLR,,0.00,0.0,WeatherDisplay:10.37,2013-05-11 04:51:00,
2013-05-10 23:56:00,48.5,45.4,30.00,NNW,337,0.0,0.0,89,0.00,CLR,,0.00,0.0,WeatherDisplay:10.37,2013-05-11 04:56:00,